sensor_id;sensor_type;location;lat;lon;timestamp;pressure;altitude;pressure_sealevel;temperature
43292;BMP280;28754;47.700;7.924;2023-10-31T00:02:33;90109.50;;;10.64
43292;BMP280;28754;47.700;7.924;2023-10-31T00:05:20;90118.72;;;10.65
43292;BMP280;28754;47.700;7.924;2023-10-31T00:08:06;90111.47;;;10.67
43292;BMP280;28754;47.700;7.924;2023-10-31T00:10:53;90102.88;;;10.63
43292;BMP280;28754;47.700;7.924;2023-10-31T00:13:42;90117.66;;;10.66
43292;BMP280;28754;47.700;7.924;2023-10-31T00:16:28;90107.41;;;10.66
43292;BMP280;28754;47.700;7.924;2023-10-31T00:19:15;90108.47;;;10.65
43292;BMP280;28754;47.700;7.924;2023-10-31T00:22:02;90098.25;;;10.65
43292;BMP280;28754;47.700;7.924;2023-10-31T00:24:48;90101.56;;;10.65
43292;BMP280;28754;47.700;7.924;2023-10-31T00:27:35;90099.84;;;10.61
43292;BMP280;28754;47.700;7.924;2023-10-31T00:30:22;90106.00;;;10.60
43292;BMP280;28754;47.700;7.924;2023-10-31T00:33:08;90113.88;;;10.63
43292;BMP280;28754;47.700;7.924;2023-10-31T00:35:55;90101.34;;;10.62
43292;BMP280;28754;47.700;7.924;2023-10-31T00:38:42;90104.13;;;10.52
43292;BMP280;28754;47.700;7.924;2023-10-31T00:41:29;90112.38;;;10.49
43292;BMP280;28754;47.700;7.924;2023-10-31T00:44:15;90108.09;;;10.45
43292;BMP280;28754;47.700;7.924;2023-10-31T00:47:02;90106.88;;;10.42
43292;BMP280;28754;47.700;7.924;2023-10-31T00:49:51;90112.19;;;10.46
43292;BMP280;28754;47.700;7.924;2023-10-31T00:52:39;90108.38;;;10.43
43292;BMP280;28754;47.700;7.924;2023-10-31T00:55:26;90108.97;;;10.40
43292;BMP280;28754;47.700;7.924;2023-10-31T00:58:12;90107.75;;;10.38
43292;BMP280;28754;47.700;7.924;2023-10-31T01:00:59;90110.84;;;10.35
43292;BMP280;28754;47.700;7.924;2023-10-31T01:03:46;90117.31;;;10.32
43292;BMP280;28754;47.700;7.924;2023-10-31T01:06:33;90108.59;;;10.33
43292;BMP280;28754;47.700;7.924;2023-10-31T01:09:19;90117.88;;;10.29
43292;BMP280;28754;47.700;7.924;2023-10-31T01:12:06;90108.69;;;10.28
43292;BMP280;28754;47.700;7.924;2023-10-31T01:14:54;90108.69;;;10.28
43292;BMP280;28754;47.700;7.924;2023-10-31T01:17:41;90120.91;;;10.31
43292;BMP280;28754;47.700;7.924;2023-10-31T01:20:28;90115.31;;;10.29
43292;BMP280;28754;47.700;7.924;2023-10-31T01:23:14;90122.53;;;10.27
43292;BMP280;28754;47.700;7.924;2023-10-31T01:26:01;90117.41;;;10.27
43292;BMP280;28754;47.700;7.924;2023-10-31T01:28:47;90110.69;;;10.31
43292;BMP280;28754;47.700;7.924;2023-10-31T01:31:34;90118.53;;;10.35
43292;BMP280;28754;47.700;7.924;2023-10-31T01:34:23;90124.69;;;10.34
43292;BMP280;28754;47.700;7.924;2023-10-31T01:37:10;90112.66;;;10.34
43292;BMP280;28754;47.700;7.924;2023-10-31T01:39:56;90111.72;;;10.30
43292;BMP280;28754;47.700;7.924;2023-10-31T01:42:43;90111.22;;;10.28
43292;BMP280;28754;47.700;7.924;2023-10-31T01:45:30;90118.06;;;10.20
43292;BMP280;28754;47.700;7.924;2023-10-31T01:48:17;90104.41;;;10.11
43292;BMP280;28754;47.700;7.924;2023-10-31T01:51:05;90108.59;;;10.07
43292;BMP280;28754;47.700;7.924;2023-10-31T01:53:52;90113.53;;;10.03
43292;BMP280;28754;47.700;7.924;2023-10-31T01:56:40;90116.34;;;10.02
43292;BMP280;28754;47.700;7.924;2023-10-31T01:59:28;90135.84;;;9.98
43292;BMP280;28754;47.700;7.924;2023-10-31T02:02:16;90134.81;;;9.99
43292;BMP280;28754;47.700;7.924;2023-10-31T02:05:03;90147.03;;;10.02
43292;BMP280;28754;47.700;7.924;2023-10-31T02:07:49;90149.13;;;10.00
43292;BMP280;28754;47.700;7.924;2023-10-31T02:10:36;90143.81;;;9.96
43292;BMP280;28754;47.700;7.924;2023-10-31T02:13:23;90159.78;;;9.89
43292;BMP280;28754;47.700;7.924;2023-10-31T02:16:09;90157.59;;;9.82
43292;BMP280;28754;47.700;7.924;2023-10-31T02:18:56;90175.00;;;9.80
43292;BMP280;28754;47.700;7.924;2023-10-31T02:21:43;90182.19;;;9.78
43292;BMP280;28754;47.700;7.924;2023-10-31T02:24:29;90199.59;;;9.76
43292;BMP280;28754;47.700;7.924;2023-10-31T02:27:16;90200.16;;;9.73
43292;BMP280;28754;47.700;7.924;2023-10-31T02:30:03;90208.31;;;9.75
43292;BMP280;28754;47.700;7.924;2023-10-31T02:32:50;90203.69;;;9.77
43292;BMP280;28754;47.700;7.924;2023-10-31T02:35:37;90217.97;;;9.78
43292;BMP280;28754;47.700;7.924;2023-10-31T02:38:24;90210.56;;;9.77
43292;BMP280;28754;47.700;7.924;2023-10-31T02:41:11;90227.22;;;9.74
43292;BMP280;28754;47.700;7.924;2023-10-31T02:43:58;90216.03;;;9.70
43292;BMP280;28754;47.700;7.924;2023-10-31T02:46:45;90229.66;;;9.66
43292;BMP280;28754;47.700;7.924;2023-10-31T02:49:31;90232.50;;;9.64
43292;BMP280;28754;47.700;7.924;2023-10-31T02:52:18;90227.19;;;9.61
43292;BMP280;28754;47.700;7.924;2023-10-31T02:55:05;90236.56;;;9.65
43292;BMP280;28754;47.700;7.924;2023-10-31T02:57:52;90234.56;;;9.62
43292;BMP280;28754;47.700;7.924;2023-10-31T03:00:39;90239.13;;;9.65
43292;BMP280;28754;47.700;7.924;2023-10-31T03:03:25;90235.25;;;9.68
43292;BMP280;28754;47.700;7.924;2023-10-31T03:06:12;90241.91;;;9.69
43292;BMP280;28754;47.700;7.924;2023-10-31T03:09:01;90249.91;;;9.62
43292;BMP280;28754;47.700;7.924;2023-10-31T03:11:49;90250.94;;;9.61
43292;BMP280;28754;47.700;7.924;2023-10-31T03:14:35;90248.28;;;9.66
43292;BMP280;28754;47.700;7.924;2023-10-31T03:17:22;90246.69;;;9.70
43292;BMP280;28754;47.700;7.924;2023-10-31T03:20:12;90244.09;;;9.75
43292;BMP280;28754;47.700;7.924;2023-10-31T03:22:58;90261.69;;;9.77
43292;BMP280;28754;47.700;7.924;2023-10-31T03:25:45;90259.13;;;9.77
43292;BMP280;28754;47.700;7.924;2023-10-31T03:28:32;90264.59;;;9.70
43292;BMP280;28754;47.700;7.924;2023-10-31T03:31:18;90273.50;;;9.73
43292;BMP280;28754;47.700;7.924;2023-10-31T03:34:05;90263.00;;;9.74
43292;BMP280;28754;47.700;7.924;2023-10-31T03:36:51;90266.03;;;9.76
43292;BMP280;28754;47.700;7.924;2023-10-31T03:39:38;90264.53;;;9.75
43292;BMP280;28754;47.700;7.924;2023-10-31T03:42:25;90255.56;;;9.78
43292;BMP280;28754;47.700;7.924;2023-10-31T03:45:11;90255.06;;;9.76
43292;BMP280;28754;47.700;7.924;2023-10-31T03:47:58;90260.66;;;9.78
43292;BMP280;28754;47.700;7.924;2023-10-31T03:50:45;90269.91;;;9.74
43292;BMP280;28754;47.700;7.924;2023-10-31T03:53:32;90256.03;;;9.80
43292;BMP280;28754;47.700;7.924;2023-10-31T03:56:18;90258.28;;;9.81
43292;BMP280;28754;47.700;7.924;2023-10-31T03:59:05;90258.78;;;9.83
43292;BMP280;28754;47.700;7.924;2023-10-31T04:01:52;90280.28;;;9.82
43292;BMP280;28754;47.700;7.924;2023-10-31T04:04:38;90274.69;;;9.80
43292;BMP280;28754;47.700;7.924;2023-10-31T04:07:25;90274.19;;;9.78
43292;BMP280;28754;47.700;7.924;2023-10-31T04:10:12;90280.53;;;9.81
43292;BMP280;28754;47.700;7.924;2023-10-31T04:12:58;90279.72;;;9.85
43292;BMP280;28754;47.700;7.924;2023-10-31T04:15:45;90270.97;;;9.91
43292;BMP280;28754;47.700;7.924;2023-10-31T04:18:32;90295.41;;;9.97
43292;BMP280;28754;47.700;7.924;2023-10-31T04:21:18;90282.81;;;10.00
43292;BMP280;28754;47.700;7.924;2023-10-31T04:24:06;90281.31;;;9.99
43292;BMP280;28754;47.700;7.924;2023-10-31T04:26:52;90282.06;;;10.00
43292;BMP280;28754;47.700;7.924;2023-10-31T04:29:39;90286.34;;;10.04
43292;BMP280;28754;47.700;7.924;2023-10-31T04:32:26;90286.16;;;10.01
43292;BMP280;28754;47.700;7.924;2023-10-31T04:35:13;90291.75;;;10.03
43292;BMP280;28754;47.700;7.924;2023-10-31T04:37:59;90298.38;;;10.04
43292;BMP280;28754;47.700;7.924;2023-10-31T04:40:46;90293.25;;;10.04
43292;BMP280;28754;47.700;7.924;2023-10-31T04:43:33;90296.88;;;10.03
43292;BMP280;28754;47.700;7.924;2023-10-31T04:46:19;90296.38;;;10.01
43292;BMP280;28754;47.700;7.924;2023-10-31T04:49:06;90300.44;;;10.02
43292;BMP280;28754;47.700;7.924;2023-10-31T04:51:53;90295.59;;;10.00
43292;BMP280;28754;47.700;7.924;2023-10-31T04:54:40;90294.59;;;10.01
43292;BMP280;28754;47.700;7.924;2023-10-31T04:57:27;90292.03;;;10.01
43292;BMP280;28754;47.700;7.924;2023-10-31T05:00:14;90300.44;;;10.02
43292;BMP280;28754;47.700;7.924;2023-10-31T05:03:00;90297.63;;;10.03
43292;BMP280;28754;47.700;7.924;2023-10-31T05:05:49;90298.94;;;10.01
43292;BMP280;28754;47.700;7.924;2023-10-31T05:08:36;90296.09;;;10.02
43292;BMP280;28754;47.700;7.924;2023-10-31T05:11:23;90310.69;;;10.02
43292;BMP280;28754;47.700;7.924;2023-10-31T05:14:10;90307.63;;;10.00
43292;BMP280;28754;47.700;7.924;2023-10-31T05:16:57;90312.00;;;9.99
43292;BMP280;28754;47.700;7.924;2023-10-31T05:19:43;90311.25;;;9.99
43292;BMP280;28754;47.700;7.924;2023-10-31T05:22:30;90312.56;;;9.96
43292;BMP280;28754;47.700;7.924;2023-10-31T05:25:17;90308.75;;;9.94
43292;BMP280;28754;47.700;7.924;2023-10-31T05:28:04;90304.41;;;9.94
43292;BMP280;28754;47.700;7.924;2023-10-31T05:30:51;90298.66;;;9.84
43292;BMP280;28754;47.700;7.924;2023-10-31T05:33:38;90309.97;;;9.78
43292;BMP280;28754;47.700;7.924;2023-10-31T05:36:25;90302.88;;;9.75
43292;BMP280;28754;47.700;7.924;2023-10-31T05:39:12;90306.69;;;9.78
43292;BMP280;28754;47.700;7.924;2023-10-31T05:41:59;90299.50;;;9.80
43292;BMP280;28754;47.700;7.924;2023-10-31T05:44:45;90284.63;;;9.82
43292;BMP280;28754;47.700;7.924;2023-10-31T05:47:32;90295.03;;;9.85
43292;BMP280;28754;47.700;7.924;2023-10-31T05:50:21;90287.69;;;9.84
43292;BMP280;28754;47.700;7.924;2023-10-31T05:53:08;90298.91;;;9.83
43292;BMP280;28754;47.700;7.924;2023-10-31T05:55:55;90302.81;;;9.80
43292;BMP280;28754;47.700;7.924;2023-10-31T05:58:42;90301.25;;;9.79
43292;BMP280;28754;47.700;7.924;2023-10-31T06:01:28;90305.84;;;9.82
43292;BMP280;28754;47.700;7.924;2023-10-31T06:04:15;90306.59;;;9.83
43292;BMP280;28754;47.700;7.924;2023-10-31T06:07:02;90307.34;;;9.83
43292;BMP280;28754;47.700;7.924;2023-10-31T06:09:49;90315.50;;;9.85
43292;BMP280;28754;47.700;7.924;2023-10-31T06:12:35;90321.19;;;9.82
43292;BMP280;28754;47.700;7.924;2023-10-31T06:15:22;90319.63;;;9.81
43292;BMP280;28754;47.700;7.924;2023-10-31T06:18:09;90327.31;;;9.81
43292;BMP280;28754;47.700;7.924;2023-10-31T06:20:56;90334.16;;;9.86
43292;BMP280;28754;47.700;7.924;2023-10-31T06:23:43;90338.25;;;9.87
43292;BMP280;28754;47.700;7.924;2023-10-31T06:26:32;90341.78;;;9.91
43292;BMP280;28754;47.700;7.924;2023-10-31T06:29:19;90345.09;;;9.91
43292;BMP280;28754;47.700;7.924;2023-10-31T06:32:06;90349.66;;;9.94
43292;BMP280;28754;47.700;7.924;2023-10-31T06:34:52;90356.56;;;9.93
43292;BMP280;28754;47.700;7.924;2023-10-31T06:37:39;90348.16;;;9.93
43292;BMP280;28754;47.700;7.924;2023-10-31T06:40:26;90361.94;;;9.92
43292;BMP280;28754;47.700;7.924;2023-10-31T06:43:12;90359.88;;;9.94
43292;BMP280;28754;47.700;7.924;2023-10-31T06:45:59;90365.47;;;9.96
43292;BMP280;28754;47.700;7.924;2023-10-31T06:48:47;90372.41;;;9.95
43292;BMP280;28754;47.700;7.924;2023-10-31T06:51:33;90370.59;;;9.96
43292;BMP280;28754;47.700;7.924;2023-10-31T06:54:20;90375.22;;;9.94
43292;BMP280;28754;47.700;7.924;2023-10-31T06:57:07;90372.97;;;9.93
43292;BMP280;28754;47.700;7.924;2023-10-31T06:59:54;90376.28;;;9.93
43292;BMP280;28754;47.700;7.924;2023-10-31T07:02:41;90380.06;;;9.95
43292;BMP280;28754;47.700;7.924;2023-10-31T07:05:28;90384.91;;;9.97
43292;BMP280;28754;47.700;7.924;2023-10-31T07:08:14;90388.31;;;9.93
43292;BMP280;28754;47.700;7.924;2023-10-31T07:11:01;90387.53;;;9.92
43292;BMP280;28754;47.700;7.924;2023-10-31T07:13:47;90386.97;;;9.95
43292;BMP280;28754;47.700;7.924;2023-10-31T07:16:34;90392.28;;;9.98
43292;BMP280;28754;47.700;7.924;2023-10-31T07:19:21;90396.13;;;10.01
43292;BMP280;28754;47.700;7.924;2023-10-31T07:22:08;90407.09;;;10.01
43292;BMP280;28754;47.700;7.924;2023-10-31T07:24:54;90399.97;;;9.98
43292;BMP280;28754;47.700;7.924;2023-10-31T07:27:41;90393.59;;;9.96
43292;BMP280;28754;47.700;7.924;2023-10-31T07:30:28;90400.34;;;9.87
43292;BMP280;28754;47.700;7.924;2023-10-31T07:33:14;90398.53;;;9.88
43292;BMP280;28754;47.700;7.924;2023-10-31T07:36:01;90410.56;;;9.87
43292;BMP280;28754;47.700;7.924;2023-10-31T07:38:48;90407.53;;;9.85
43292;BMP280;28754;47.700;7.924;2023-10-31T07:41:34;90423.84;;;9.89
43292;BMP280;28754;47.700;7.924;2023-10-31T07:44:21;90409.06;;;9.86
43292;BMP280;28754;47.700;7.924;2023-10-31T07:47:08;90420.81;;;9.87
43292;BMP280;28754;47.700;7.924;2023-10-31T07:49:54;90414.94;;;9.87
43292;BMP280;28754;47.700;7.924;2023-10-31T07:52:41;90416.72;;;9.86
43292;BMP280;28754;47.700;7.924;2023-10-31T07:55:30;90415.50;;;9.84
43292;BMP280;28754;47.700;7.924;2023-10-31T07:58:16;90424.19;;;9.83
43292;BMP280;28754;47.700;7.924;2023-10-31T08:01:03;90422.69;;;9.82
43292;BMP280;28754;47.700;7.924;2023-10-31T08:03:50;90429.84;;;9.80
43292;BMP280;28754;47.700;7.924;2023-10-31T08:06:37;90422.94;;;9.80
43292;BMP280;28754;47.700;7.924;2023-10-31T08:09:23;90434.19;;;9.79
43292;BMP280;28754;47.700;7.924;2023-10-31T08:12:10;90444.69;;;9.78
43292;BMP280;28754;47.700;7.924;2023-10-31T08:14:57;90435.22;;;9.78
43292;BMP280;28754;47.700;7.924;2023-10-31T08:17:45;90440.28;;;9.83
43292;BMP280;28754;47.700;7.924;2023-10-31T08:20:31;90431.28;;;9.86
43292;BMP280;28754;47.700;7.924;2023-10-31T08:23:20;90438.19;;;9.90
43292;BMP280;28754;47.700;7.924;2023-10-31T08:26:07;90446.63;;;9.91
43292;BMP280;28754;47.700;7.924;2023-10-31T08:28:53;90444.56;;;9.93
43292;BMP280;28754;47.700;7.924;2023-10-31T08:31:40;90440.75;;;9.90
43292;BMP280;28754;47.700;7.924;2023-10-31T08:34:26;90446.09;;;9.89
43292;BMP280;28754;47.700;7.924;2023-10-31T08:37:13;90462.16;;;9.94
43292;BMP280;28754;47.700;7.924;2023-10-31T08:40:00;90463.75;;;9.90
43292;BMP280;28754;47.700;7.924;2023-10-31T08:42:49;90462.19;;;9.89
43292;BMP280;28754;47.700;7.924;2023-10-31T08:45:36;90467.56;;;9.88
43292;BMP280;28754;47.700;7.924;2023-10-31T08:48:23;90464.53;;;9.86
43292;BMP280;28754;47.700;7.924;2023-10-31T08:51:09;90480.66;;;9.86
43292;BMP280;28754;47.700;7.924;2023-10-31T08:53:56;90470.66;;;9.90
43292;BMP280;28754;47.700;7.924;2023-10-31T08:56:42;90475.97;;;9.93
43292;BMP280;28754;47.700;7.924;2023-10-31T08:59:29;90475.22;;;9.93
43292;BMP280;28754;47.700;7.924;2023-10-31T09:02:16;90488.78;;;9.93
43292;BMP280;28754;47.700;7.924;2023-10-31T09:05:03;90474.66;;;9.95
43292;BMP280;28754;47.700;7.924;2023-10-31T09:07:49;90480.53;;;9.96
43292;BMP280;28754;47.700;7.924;2023-10-31T09:10:36;90466.75;;;9.97
43292;BMP280;28754;47.700;7.924;2023-10-31T09:13:24;90472.13;;;9.95
43292;BMP280;28754;47.700;7.924;2023-10-31T09:16:11;90475.91;;;9.98
43292;BMP280;28754;47.700;7.924;2023-10-31T09:19:00;90465.66;;;10.03
43292;BMP280;28754;47.700;7.924;2023-10-31T09:21:46;90484.97;;;10.09
43292;BMP280;28754;47.700;7.924;2023-10-31T09:24:33;90470.13;;;10.11
43292;BMP280;28754;47.700;7.924;2023-10-31T09:27:20;90476.28;;;10.10
43292;BMP280;28754;47.700;7.924;2023-10-31T09:30:07;90467.88;;;10.09
43292;BMP280;28754;47.700;7.924;2023-10-31T09:32:54;90472.41;;;10.12
43292;BMP280;28754;47.700;7.924;2023-10-31T09:35:40;90464.94;;;10.16
43292;BMP280;28754;47.700;7.924;2023-10-31T09:38:27;90468.75;;;10.18
43292;BMP280;28754;47.700;7.924;2023-10-31T09:41:14;90473.53;;;10.25
43292;BMP280;28754;47.700;7.924;2023-10-31T09:44:01;90463.72;;;10.31
43292;BMP280;28754;47.700;7.924;2023-10-31T09:46:47;90478.50;;;10.34
43292;BMP280;28754;47.700;7.924;2023-10-31T09:49:35;90473.38;;;10.34
43292;BMP280;28754;47.700;7.924;2023-10-31T09:52:22;90471.31;;;10.36
43292;BMP280;28754;47.700;7.924;2023-10-31T09:55:10;90478.16;;;10.41
43292;BMP280;28754;47.700;7.924;2023-10-31T09:57:57;90471.19;;;10.46
43292;BMP280;28754;47.700;7.924;2023-10-31T10:00:43;90472.16;;;10.50
43292;BMP280;28754;47.700;7.924;2023-10-31T10:03:30;90469.59;;;10.50
43292;BMP280;28754;47.700;7.924;2023-10-31T10:06:18;90473.44;;;10.48
43292;BMP280;28754;47.700;7.924;2023-10-31T10:09:07;90485.50;;;10.47
43292;BMP280;28754;47.700;7.924;2023-10-31T10:11:56;90477.53;;;10.49
43292;BMP280;28754;47.700;7.924;2023-10-31T10:14:45;90478.03;;;10.51
43292;BMP280;28754;47.700;7.924;2023-10-31T10:17:33;90474.63;;;10.55
43292;BMP280;28754;47.700;7.924;2023-10-31T10:20:20;90483.28;;;10.59
43292;BMP280;28754;47.700;7.924;2023-10-31T10:23:07;90485.00;;;10.63
43292;BMP280;28754;47.700;7.924;2023-10-31T10:25:56;90474.41;;;10.70
43292;BMP280;28754;47.700;7.924;2023-10-31T10:28:47;90481.00;;;10.76
43292;BMP280;28754;47.700;7.924;2023-10-31T10:31:34;90483.06;;;10.74
43292;BMP280;28754;47.700;7.924;2023-10-31T10:34:21;90495.31;;;10.77
43292;BMP280;28754;47.700;7.924;2023-10-31T10:37:09;90489.34;;;10.81
43292;BMP280;28754;47.700;7.924;2023-10-31T10:39:57;90478.63;;;10.79
43292;BMP280;28754;47.700;7.924;2023-10-31T10:42:47;90491.22;;;10.76
43292;BMP280;28754;47.700;7.924;2023-10-31T10:45:38;90492.81;;;10.72
43292;BMP280;28754;47.700;7.924;2023-10-31T10:48:28;90490.75;;;10.74
43292;BMP280;28754;47.700;7.924;2023-10-31T10:51:21;90481.00;;;10.76
43292;BMP280;28754;47.700;7.924;2023-10-31T10:57:54;90484.31;;;10.76
43292;BMP280;28754;47.700;7.924;2023-10-31T11:00:43;90489.34;;;10.81
43292;BMP280;28754;47.700;7.924;2023-10-31T11:03:31;90496.94;;;10.86
43292;BMP280;28754;47.700;7.924;2023-10-31T11:06:19;90487.19;;;10.88
43292;BMP280;28754;47.700;7.924;2023-10-31T11:09:06;90487.19;;;10.88
43292;BMP280;28754;47.700;7.924;2023-10-31T11:11:54;90493.56;;;10.91
43292;BMP280;28754;47.700;7.924;2023-10-31T11:14:41;90484.63;;;10.88
43292;BMP280;28754;47.700;7.924;2023-10-31T11:17:33;90484.25;;;10.95
43292;BMP280;28754;47.700;7.924;2023-10-31T11:20:21;90493.22;;;10.97
43292;BMP280;28754;47.700;7.924;2023-10-31T11:23:08;90479.34;;;10.98
43292;BMP280;28754;47.700;7.924;2023-10-31T11:25:55;90487.31;;;10.96
43292;BMP280;28754;47.700;7.924;2023-10-31T11:28:43;90489.38;;;10.95
43292;BMP280;28754;47.700;7.924;2023-10-31T11:31:31;90482.75;;;10.94
43292;BMP280;28754;47.700;7.924;2023-10-31T11:34:19;90484.25;;;10.95
43292;BMP280;28754;47.700;7.924;2023-10-31T11:37:27;90485.81;;;10.96
43292;BMP280;28754;47.700;7.924;2023-10-31T11:40:19;90496.03;;;10.96
43292;BMP280;28754;47.700;7.924;2023-10-31T11:43:07;90486.34;;;10.93
43292;BMP280;28754;47.700;7.924;2023-10-31T11:45:57;90494.50;;;10.95
43292;BMP280;28754;47.700;7.924;2023-10-31T11:48:51;90497.06;;;10.95
43292;BMP280;28754;47.700;7.924;2023-10-31T11:51:38;90500.69;;;10.94
43292;BMP280;28754;47.700;7.924;2023-10-31T11:54:26;90492.03;;;10.90
43292;BMP280;28754;47.700;7.924;2023-10-31T11:57:27;90495.44;;;10.85
43292;BMP280;28754;47.700;7.924;2023-10-31T12:00:23;90510.59;;;10.82
43292;BMP280;28754;47.700;7.924;2023-10-31T12:03:10;90499.81;;;10.85
43292;BMP280;28754;47.700;7.924;2023-10-31T12:05:58;90505.59;;;10.90
43292;BMP280;28754;47.700;7.924;2023-10-31T12:08:49;90501.72;;;10.93
43292;BMP280;28754;47.700;7.924;2023-10-31T12:11:44;90520.81;;;11.00
43292;BMP280;28754;47.700;7.924;2023-10-31T12:14:31;90507.16;;;11.04
43292;BMP280;28754;47.700;7.924;2023-10-31T12:17:18;90514.00;;;11.09
43292;BMP280;28754;47.700;7.924;2023-10-31T12:20:07;90504.81;;;11.08
43292;BMP280;28754;47.700;7.924;2023-10-31T12:23:04;90516.34;;;11.05
43292;BMP280;28754;47.700;7.924;2023-10-31T12:25:54;90525.38;;;11.03
43292;BMP280;28754;47.700;7.924;2023-10-31T12:28:40;90521.38;;;10.97
43292;BMP280;28754;47.700;7.924;2023-10-31T12:31:27;90528.63;;;10.90
43292;BMP280;28754;47.700;7.924;2023-10-31T12:34:19;90528.25;;;10.83
43292;BMP280;28754;47.700;7.924;2023-10-31T12:37:06;90531.63;;;10.79
43292;BMP280;28754;47.700;7.924;2023-10-31T12:39:53;90535.25;;;10.78
43292;BMP280;28754;47.700;7.924;2023-10-31T12:42:40;90542.94;;;10.78
43292;BMP280;28754;47.700;7.924;2023-10-31T12:45:28;90541.25;;;10.68
43292;BMP280;28754;47.700;7.924;2023-10-31T12:48:15;90568.72;;;10.63
43292;BMP280;28754;47.700;7.924;2023-10-31T12:51:11;90556.06;;;10.53
43292;BMP280;28754;47.700;7.924;2023-10-31T12:53:58;90556.94;;;10.44
43292;BMP280;28754;47.700;7.924;2023-10-31T12:56:44;90557.78;;;10.39
43292;BMP280;28754;47.700;7.924;2023-10-31T12:59:36;90559.84;;;10.37
43292;BMP280;28754;47.700;7.924;2023-10-31T13:02:24;90559.06;;;10.37
43292;BMP280;28754;47.700;7.924;2023-10-31T13:05:15;90554.91;;;10.41
43292;BMP280;28754;47.700;7.924;2023-10-31T13:08:02;90558.47;;;10.45
43292;BMP280;28754;47.700;7.924;2023-10-31T13:10:51;90561.78;;;10.45
43292;BMP280;28754;47.700;7.924;2023-10-31T13:13:39;90568.44;;;10.46
43292;BMP280;28754;47.700;7.924;2023-10-31T13:16:26;90561.25;;;10.48
43292;BMP280;28754;47.700;7.924;2023-10-31T13:19:13;90567.69;;;10.46
43292;BMP280;28754;47.700;7.924;2023-10-31T13:21:59;90567.69;;;10.46
43292;BMP280;28754;47.700;7.924;2023-10-31T13:24:46;90575.53;;;10.49
43292;BMP280;28754;47.700;7.924;2023-10-31T13:27:34;90581.16;;;10.51
43292;BMP280;28754;47.700;7.924;2023-10-31T13:30:24;90580.13;;;10.52
43292;BMP280;28754;47.700;7.924;2023-10-31T13:33:11;90588.84;;;10.51
43292;BMP280;28754;47.700;7.924;2023-10-31T13:35:58;90579.44;;;10.47
43292;BMP280;28754;47.700;7.924;2023-10-31T13:38:45;90584.47;;;10.52
43292;BMP280;28754;47.700;7.924;2023-10-31T13:42:24;90592.16;;;10.52
43292;BMP280;28754;47.700;7.924;2023-10-31T13:45:14;90592.94;;;10.52
43292;BMP280;28754;47.700;7.924;2023-10-31T13:48:06;90604.69;;;10.53
43292;BMP280;28754;47.700;7.924;2023-10-31T13:50:53;90596.94;;;10.58
43292;BMP280;28754;47.700;7.924;2023-10-31T13:57:44;90621.00;;;10.57
43292;BMP280;28754;47.700;7.924;2023-10-31T14:00:31;90618.94;;;10.59
43292;BMP280;28754;47.700;7.924;2023-10-31T14:03:17;90630.91;;;10.63
43292;BMP280;28754;47.700;7.924;2023-10-31T14:06:05;90630.16;;;10.63
43292;BMP280;28754;47.700;7.924;2023-10-31T14:08:51;90624.06;;;10.59
43292;BMP280;28754;47.700;7.924;2023-10-31T14:11:41;90616.38;;;10.59
43292;BMP280;28754;47.700;7.924;2023-10-31T14:14:28;90627.13;;;10.61
43292;BMP280;28754;47.700;7.924;2023-10-31T14:17:16;90621.22;;;10.61
43292;BMP280;28754;47.700;7.924;2023-10-31T14:20:03;90620.94;;;10.62
43292;BMP280;28754;47.700;7.924;2023-10-31T14:22:50;90630.19;;;10.58
43292;BMP280;28754;47.700;7.924;2023-10-31T14:25:37;90630.03;;;10.50
43292;BMP280;28754;47.700;7.924;2023-10-31T14:28:25;90624.31;;;10.39
43292;BMP280;28754;47.700;7.924;2023-10-31T14:31:11;90635.78;;;10.42
43292;BMP280;28754;47.700;7.924;2023-10-31T14:33:58;90638.63;;;10.40
43292;BMP280;28754;47.700;7.924;2023-10-31T14:36:45;90650.66;;;10.40
43292;BMP280;28754;47.700;7.924;2023-10-31T14:39:32;90654.47;;;10.42
43292;BMP280;28754;47.700;7.924;2023-10-31T14:42:19;90659.81;;;10.46
43292;BMP280;28754;47.700;7.924;2023-10-31T14:45:06;90666.44;;;10.47
43292;BMP280;28754;47.700;7.924;2023-10-31T14:47:52;90660.56;;;10.46
43292;BMP280;28754;47.700;7.924;2023-10-31T14:50:39;90677.44;;;10.47
43292;BMP280;28754;47.700;7.924;2023-10-31T14:53:26;90664.44;;;10.44
43292;BMP280;28754;47.700;7.924;2023-10-31T14:56:13;90678.47;;;10.46
43292;BMP280;28754;47.700;7.924;2023-10-31T14:59:00;90678.97;;;10.48
43292;BMP280;28754;47.700;7.924;2023-10-31T15:01:48;90687.41;;;10.49
43292;BMP280;28754;47.700;7.924;2023-10-31T15:04:35;90678.19;;;10.48
43292;BMP280;28754;47.700;7.924;2023-10-31T15:07:22;90685.84;;;10.48
43292;BMP280;28754;47.700;7.924;2023-10-31T15:10:09;90692.03;;;10.47
43292;BMP280;28754;47.700;7.924;2023-10-31T15:12:55;90695.06;;;10.49
43292;BMP280;28754;47.700;7.924;2023-10-31T15:15:42;90705.06;;;10.50
43292;BMP280;28754;47.700;7.924;2023-10-31T15:18:29;90700.94;;;10.49
43292;BMP280;28754;47.700;7.924;2023-10-31T15:21:15;90710.69;;;10.47
43292;BMP280;28754;47.700;7.924;2023-10-31T15:24:02;90714.81;;;10.43
43292;BMP280;28754;47.700;7.924;2023-10-31T15:26:53;90722.81;;;10.37
43292;BMP280;28754;47.700;7.924;2023-10-31T15:29:41;90722.56;;;10.38
43292;BMP280;28754;47.700;7.924;2023-10-31T15:32:28;90715.44;;;10.35
43292;BMP280;28754;47.700;7.924;2023-10-31T15:35:15;90745.69;;;10.28
43292;BMP280;28754;47.700;7.924;2023-10-31T15:38:01;90739.59;;;10.25
43292;BMP280;28754;47.700;7.924;2023-10-31T15:40:48;90749.84;;;10.20
43292;BMP280;28754;47.700;7.924;2023-10-31T15:43:35;90762.38;;;10.21
43292;BMP280;28754;47.700;7.924;2023-10-31T15:46:21;90759.28;;;10.24
43292;BMP280;28754;47.700;7.924;2023-10-31T15:49:08;90760.59;;;10.22
43292;BMP280;28754;47.700;7.924;2023-10-31T15:51:55;90762.38;;;10.21
43292;BMP280;28754;47.700;7.924;2023-10-31T15:54:41;90783.91;;;10.20
43292;BMP280;28754;47.700;7.924;2023-10-31T15:57:28;90780.03;;;10.23
43292;BMP280;28754;47.700;7.924;2023-10-31T16:00:15;90782.59;;;10.23
43292;BMP280;28754;47.700;7.924;2023-10-31T16:03:04;90785.16;;;10.23
43292;BMP280;28754;47.700;7.924;2023-10-31T16:05:51;90795.38;;;10.23
43292;BMP280;28754;47.700;7.924;2023-10-31T16:08:38;90791.03;;;10.23
43292;BMP280;28754;47.700;7.924;2023-10-31T16:11:27;90809.44;;;10.25
43292;BMP280;28754;47.700;7.924;2023-10-31T16:14:14;90811.75;;;10.22
43292;BMP280;28754;47.700;7.924;2023-10-31T16:17:01;90819.47;;;10.17
43292;BMP280;28754;47.700;7.924;2023-10-31T16:19:48;90832.25;;;10.17